Time;durP1;ratioP1;P1;durP2;ratioP2;P2;SDS_P1;SDS_P2;PMS_P1;PMS_P2;Temp;Humidity;BMP_temperature;BMP_pressure;BME280_temperature;BME280_humidity;BME280_pressure;Samples;Min_cycle;Max_cycle;Signal;HPM_P1;HPM_P2
2022/01/10 06:00:20;;;;;;;9.13;7.13;;;6.30;97.20;;;;;;1702934;29;20713;-84
2022/01/10 06:01:11;;;;;;;9.02;7.30;;;6.30;97.20;;;;;;1702424;29;20231;-83
2022/01/10 06:02:03;;;;;;;11.23;6.97;;;6.30;97.20;;;;;;1699549;29;20196;-84
2022/01/10 06:02:54;;;;;;;11.52;7.25;;;6.30;97.20;;;;;;1695499;29;20214;-84
2022/01/10 06:03:45;;;;;;;12.77;7.60;;;6.20;97.20;;;;;;1697674;29;20223;-82
2022/01/10 06:04:36;;;;;;;9.57;6.68;;;6.20;97.20;;;;;;1705690;29;20211;-82
2022/01/10 06:05:31;;;;;;;9.93;6.90;;;6.20;97.20;;;;;;1707987;29;20433;-83
2022/01/10 06:06:21;;;;;;;9.52;7.10;;;6.20;97.20;;;;;;1704142;29;20215;-82
2022/01/10 06:07:13;;;;;;;9.87;7.17;;;6.10;97.20;;;;;;1703583;29;20214;-82
2022/01/10 06:08:06;;;;;;;11.10;6.85;;;6.10;97.20;;;;;;1705265;29;20208;-84
2022/01/10 06:08:57;;;;;;;11.70;7.50;;;6.10;97.20;;;;;;1704267;29;20273;-83
2022/01/10 06:09:48;;;;;;;9.20;7.32;;;6.20;97.20;;;;;;1704235;29;20235;-83
2022/01/10 06:10:40;;;;;;;7.43;6.70;;;6.20;97.20;;;;;;1702695;29;20223;-83
2022/01/10 06:11:31;;;;;;;11.40;6.80;;;6.20;97.20;;;;;;1702239;29;20226;-84
2022/01/10 06:12:22;;;;;;;7.73;6.40;;;6.20;97.20;;;;;;1702241;29;20659;-83
2022/01/10 06:13:13;;;;;;;6.57;5.70;;;6.20;97.20;;;;;;1702232;29;20235;-82
2022/01/10 06:14:05;;;;;;;6.97;6.00;;;6.20;97.20;;;;;;1702538;29;20209;-84
2022/01/10 06:14:55;;;;;;;7.38;6.60;;;6.20;97.20;;;;;;1702359;29;20207;-84
2022/01/10 06:15:48;;;;;;;10.87;6.13;;;6.20;97.20;;;;;;1702082;29;20689;-85
2022/01/10 06:16:39;;;;;;;9.07;6.70;;;6.20;97.20;;;;;;1701998;29;20263;-84
2022/01/10 06:17:31;;;;;;;7.60;6.53;;;6.20;97.20;;;;;;1702061;29;20199;-84
2022/01/10 06:18:22;;;;;;;10.73;6.90;;;6.30;97.20;;;;;;1702121;29;20599;-84
2022/01/10 06:19:13;;;;;;;7.00;6.30;;;6.30;97.20;;;;;;1703545;29;20584;-83
2022/01/10 06:20:05;;;;;;;8.60;6.20;;;6.30;97.20;;;;;;1704682;29;20447;-83
2022/01/10 06:20:57;;;;;;;8.07;5.90;;;6.30;97.20;;;;;;1703603;29;20235;-83
2022/01/10 06:21:48;;;;;;;7.65;6.10;;;6.30;97.20;;;;;;1703874;29;20207;-82
2022/01/10 06:22:39;;;;;;;8.43;7.73;;;6.30;97.20;;;;;;1703294;29;20207;-83
2022/01/10 06:23:30;;;;;;;9.73;8.82;;;6.30;97.20;;;;;;1703959;29;20630;-86
2022/01/10 06:24:22;;;;;;;12.87;9.50;;;6.20;97.20;;;;;;1704056;29;20693;-83
2022/01/10 06:25:15;;;;;;;10.02;9.13;;;6.30;97.20;;;;;;1703293;29;20633;-84
2022/01/10 06:26:07;;;;;;;9.80;8.80;;;6.30;97.20;;;;;;1701936;29;20203;-84
2022/01/10 06:26:58;;;;;;;10.45;9.45;;;6.30;97.20;;;;;;1703457;29;20207;-84
2022/01/10 06:27:50;;;;;;;10.73;9.00;;;6.30;97.20;;;;;;1702166;29;20266;-80
2022/01/10 06:28:40;;;;;;;8.10;7.40;;;6.30;97.20;;;;;;1702692;29;20452;-80
2022/01/10 06:29:32;;;;;;;7.00;6.30;;;6.30;97.20;;;;;;1701991;29;20213;-80
2022/01/10 06:30:23;;;;;;;7.30;6.28;;;6.30;97.20;;;;;;1702132;29;20214;-80
2022/01/10 06:31:17;;;;;;;10.05;6.15;;;6.20;97.20;;;;;;1701603;29;20191;-80
2022/01/10 06:32:08;;;;;;;10.77;5.07;;;6.20;97.20;;;;;;1701687;29;20586;-80
2022/01/10 06:32:59;;;;;;;6.38;5.78;;;6.20;97.20;;;;;;1701454;29;20230;-80
2022/01/10 06:33:50;;;;;;;5.40;4.90;;;6.20;97.20;;;;;;1701761;29;20203;-79
2022/01/10 06:34:42;;;;;;;8.40;4.73;;;6.30;97.20;;;;;;1701644;29;20205;-80
2022/01/10 06:35:33;;;;;;;5.95;4.90;;;6.20;97.20;;;;;;1701747;29;20461;-80
2022/01/10 06:36:25;;;;;;;5.80;4.85;;;6.30;97.20;;;;;;1701619;29;20663;-79
2022/01/10 06:37:16;;;;;;;5.65;4.47;;;6.20;97.20;;;;;;1701986;29;20230;-79
2022/01/10 06:38:07;;;;;;;7.03;5.30;;;6.20;97.20;;;;;;1701150;29;20203;-80
2022/01/10 06:38:58;;;;;;;6.43;5.60;;;6.20;97.20;;;;;;1701729;29;20251;-79
2022/01/10 06:39:50;;;;;;;7.53;5.03;;;6.20;97.20;;;;;;1701472;29;20199;-79
2022/01/10 06:40:40;;;;;;;7.13;5.28;;;6.20;97.20;;;;;;1701498;29;20245;-80
2022/01/10 06:41:32;;;;;;;6.57;4.73;;;6.10;97.20;;;;;;1701197;29;20195;-79
2022/01/10 06:42:23;;;;;;;6.30;5.25;;;6.10;97.20;;;;;;1701501;29;20612;-80
2022/01/10 06:43:15;;;;;;;6.55;4.70;;;6.10;97.20;;;;;;1701413;29;20207;-80
2022/01/10 06:44:06;;;;;;;5.65;5.15;;;6.10;97.20;;;;;;1701732;29;20230;-80
2022/01/10 06:44:57;;;;;;;6.50;4.80;;;6.10;97.20;;;;;;1701985;29;20575;-80
2022/01/10 06:45:48;;;;;;;10.18;5.63;;;6.10;97.20;;;;;;1702049;29;20825;-79
2022/01/10 06:46:41;;;;;;;7.00;5.53;;;6.10;97.20;;;;;;1701745;29;20297;-80
2022/01/10 06:47:32;;;;;;;7.03;5.53;;;6.10;97.20;;;;;;1702400;29;20294;-80
2022/01/10 06:48:24;;;;;;;6.45;5.30;;;6.10;97.20;;;;;;1701580;29;20211;-80
2022/01/10 06:49:15;;;;;;;5.97;5.30;;;6.10;97.20;;;;;;1702354;29;20203;-80
2022/01/10 06:50:08;;;;;;;5.90;5.40;;;6.10;97.20;;;;;;1702113;29;20213;-80
2022/01/10 06:50:59;;;;;;;8.07;5.20;;;6.10;97.20;;;;;;1702170;29;20228;-80
2022/01/10 06:51:51;;;;;;;6.27;5.63;;;6.00;97.20;;;;;;1702003;29;20263;-80
2022/01/10 06:52:42;;;;;;;9.98;7.30;;;6.00;97.20;;;;;;1701776;29;20219;-80
2022/01/10 06:53:34;;;;;;;7.43;6.83;;;6.00;97.20;;;;;;1701176;29;20479;-80
2022/01/10 06:54:25;;;;;;;8.50;7.38;;;6.00;97.20;;;;;;1701006;29;20466;-80
2022/01/10 06:55:17;;;;;;;10.48;7.93;;;6.00;97.20;;;;;;1701021;29;20195;-79
2022/01/10 06:56:08;;;;;;;7.85;7.13;;;6.00;97.20;;;;;;1701630;29;20211;-79
2022/01/10 06:56:59;;;;;;;8.70;7.80;;;6.00;97.20;;;;;;1701359;29;20246;-76
2022/01/10 06:57:50;;;;;;;10.50;7.10;;;6.10;97.20;;;;;;1700618;29;20781;-76
2022/01/10 06:58:42;;;;;;;9.67;7.60;;;6.10;97.20;;;;;;1700816;29;20546;-73
2022/01/10 06:59:32;;;;;;;10.07;7.50;;;6.10;97.20;;;;;;1700944;29;20586;-73
2022/01/10 07:00:24;;;;;;;9.10;6.90;;;6.10;97.20;;;;;;1700704;29;20719;-73
2022/01/10 07:01:17;;;;;;;9.68;7.20;;;6.10;97.20;;;;;;1700833;29;20215;-74
2022/01/10 07:02:10;;;;;;;9.65;7.82;;;6.20;97.20;;;;;;1700884;29;20207;-73
2022/01/10 07:03:01;;;;;;;9.05;8.15;;;6.10;97.20;;;;;;1700893;29;20203;-74
2022/01/10 07:03:54;;;;;;;11.23;7.83;;;6.20;97.20;;;;;;1700874;29;20226;-73
2022/01/10 07:04:46;;;;;;;9.70;8.10;;;6.20;97.20;;;;;;1700611;29;20878;-73
2022/01/10 07:05:37;;;;;;;13.00;7.30;;;6.20;97.20;;;;;;1700830;29;20260;-73
2022/01/10 07:06:28;;;;;;;8.67;7.77;;;6.20;97.20;;;;;;1701013;29;20219;-73
2022/01/10 07:07:19;;;;;;;9.50;7.47;;;6.20;97.20;;;;;;1700855;29;20500;-73
2022/01/10 07:08:11;;;;;;;10.10;8.10;;;6.20;97.20;;;;;;1700641;29;20200;-74
2022/01/10 07:09:01;;;;;;;10.25;9.20;;;6.20;97.20;;;;;;1700852;29;20235;-74
2022/01/10 07:09:53;;;;;;;10.10;8.77;;;6.30;97.20;;;;;;1700826;29;20214;-73
2022/01/10 07:10:44;;;;;;;9.82;8.60;;;6.30;97.20;;;;;;1700842;29;20227;-74
2022/01/10 07:11:36;;;;;;;13.10;9.23;;;6.30;97.20;;;;;;1700917;29;20213;-73
2022/01/10 07:12:27;;;;;;;11.52;9.10;;;6.30;97.20;;;;;;1700910;29;20549;-74
2022/01/10 07:13:21;;;;;;;11.80;9.50;;;6.30;97.20;;;;;;1700799;29;20217;-74
2022/01/10 07:14:14;;;;;;;12.45;9.55;;;6.30;97.20;;;;;;1700953;29;20214;-74
2022/01/10 07:15:07;;;;;;;14.57;10.02;;;6.30;97.20;;;;;;1700853;29;20310;-73
2022/01/10 07:15:57;;;;;;;12.73;9.07;;;6.30;97.20;;;;;;1698406;29;20218;-73
2022/01/10 07:16:50;;;;;;;15.90;10.10;;;6.30;97.20;;;;;;1698507;29;20289;-73
2022/01/10 07:17:42;;;;;;;13.07;10.18;;;6.30;97.20;;;;;;1700261;29;20821;-73
2022/01/10 07:18:34;;;;;;;13.25;10.82;;;6.30;97.20;;;;;;1701335;29;20730;-73
2022/01/10 07:19:25;;;;;;;13.80;10.85;;;6.20;97.20;;;;;;1700640;29;20238;-74
2022/01/10 07:20:17;;;;;;;15.20;10.98;;;6.20;97.20;;;;;;1700443;29;20717;-74
2022/01/10 07:21:08;;;;;;;13.68;10.95;;;6.20;97.20;;;;;;1700659;29;20227;-74
2022/01/10 07:21:59;;;;;;;17.53;10.83;;;6.20;97.20;;;;;;1700680;29;20209;-74
2022/01/10 07:22:50;;;;;;;17.55;10.82;;;6.20;97.20;;;;;;1700676;29;20458;-74
2022/01/10 07:23:42;;;;;;;20.87;12.57;;;6.20;97.20;;;;;;1700577;29;20203;-73
2022/01/10 07:24:33;;;;;;;20.33;11.40;;;6.20;97.20;;;;;;1700121;29;20303;-73
2022/01/10 07:25:25;;;;;;;12.77;11.03;;;6.20;97.20;;;;;;1700676;29;20738;-73
2022/01/10 07:26:17;;;;;;;15.40;12.13;;;6.20;97.20;;;;;;1700634;29;20203;-74
2022/01/10 07:27:08;;;;;;;17.90;11.85;;;6.20;97.20;;;;;;1700687;29;20663;-74
2022/01/10 07:27:59;;;;;;;14.20;11.60;;;6.30;97.20;;;;;;1700292;29;20246;-73
2022/01/10 07:28:51;;;;;;;19.00;13.03;;;6.20;97.20;;;;;;1700681;29;20203;-74
2022/01/10 07:29:42;;;;;;;17.73;13.00;;;6.20;97.20;;;;;;1700686;29;20203;-73
2022/01/10 07:30:34;;;;;;;17.93;12.93;;;6.20;97.20;;;;;;1700596;29;20320;-73
2022/01/10 07:31:24;;;;;;;19.85;13.75;;;6.30;97.20;;;;;;1700641;29;20803;-74
2022/01/10 07:32:16;;;;;;;18.50;12.30;;;6.30;97.20;;;;;;1700658;29;20286;-73
2022/01/10 07:33:08;;;;;;;17.15;12.25;;;6.30;97.20;;;;;;1700652;29;20267;-74
2022/01/10 07:34:00;;;;;;;17.20;12.55;;;6.30;97.20;;;;;;1700555;29;20241;-73
2022/01/10 07:34:51;;;;;;;17.67;12.40;;;6.30;97.20;;;;;;1704963;29;20230;-73
2022/01/10 07:35:42;;;;;;;20.27;13.07;;;6.30;97.20;;;;;;1707298;29;20201;-73
2022/01/10 07:36:35;;;;;;;15.20;12.85;;;6.30;97.20;;;;;;1701605;29;20232;-73
2022/01/10 07:37:27;;;;;;;18.30;13.05;;;6.30;97.20;;;;;;1700685;29;20208;-74
2022/01/10 07:38:19;;;;;;;21.20;13.48;;;6.20;97.20;;;;;;1705001;29;20210;-73
2022/01/10 07:39:11;;;;;;;15.40;13.45;;;6.20;97.20;;;;;;1703234;29;20211;-74
2022/01/10 07:40:03;;;;;;;19.38;13.55;;;6.20;97.20;;;;;;1700606;29;20327;-74
2022/01/10 07:40:54;;;;;;;15.13;13.38;;;6.20;97.20;;;;;;1700577;29;20241;-74
2022/01/10 07:41:45;;;;;;;15.98;13.18;;;6.20;97.20;;;;;;1700099;29;20245;-73
2022/01/10 07:42:37;;;;;;;21.03;14.60;;;6.20;97.20;;;;;;1699919;29;20212;-73
2022/01/10 07:43:28;;;;;;;21.80;15.55;;;6.20;97.20;;;;;;1700030;29;20459;-73
2022/01/10 07:44:20;;;;;;;24.17;17.20;;;6.30;97.20;;;;;;1699755;29;20230;-74
2022/01/10 07:45:11;;;;;;;24.15;17.52;;;6.30;97.20;;;;;;1705742;29;20969;-74
2022/01/10 07:46:03;;;;;;;21.97;15.37;;;6.30;97.20;;;;;;1706525;29;20615;-74
2022/01/10 07:46:55;;;;;;;22.15;14.45;;;6.20;97.20;;;;;;1706501;29;20674;-74
2022/01/10 07:47:47;;;;;;;20.85;15.90;;;6.20;97.20;;;;;;1706557;29;20201;-73
2022/01/10 07:48:41;;;;;;;17.52;13.77;;;6.20;97.20;;;;;;1706796;29;20585;-74
2022/01/10 07:49:33;;;;;;;17.35;13.38;;;6.30;97.20;;;;;;1707165;29;20219;-74
2022/01/10 07:50:24;;;;;;;19.50;14.10;;;6.30;97.20;;;;;;1707080;29;20215;-74
2022/01/10 07:51:16;;;;;;;17.03;14.13;;;6.30;97.20;;;;;;1707135;29;20210;-74
2022/01/10 07:52:07;;;;;;;18.95;13.70;;;6.30;97.20;;;;;;1706805;29;20207;-74
2022/01/10 07:52:59;;;;;;;18.90;13.75;;;6.30;97.20;;;;;;1701688;29;20659;-74
2022/01/10 07:53:50;;;;;;;18.75;14.35;;;6.30;97.20;;;;;;1704859;29;20211;-73
2022/01/10 07:54:44;;;;;;;20.05;13.80;;;6.30;97.20;;;;;;1703063;29;20733;-74
2022/01/10 07:55:35;;;;;;;22.73;13.85;;;6.30;97.20;;;;;;1704888;29;20741;-73
2022/01/10 07:56:27;;;;;;;18.37;14.70;;;6.30;97.20;;;;;;1706851;29;20617;-73
2022/01/10 07:57:18;;;;;;;22.45;14.05;;;6.30;97.20;;;;;;1707106;29;20465;-73
2022/01/10 07:58:09;;;;;;;17.30;12.70;;;6.30;97.20;;;;;;1706929;29;20241;-74
2022/01/10 07:59:00;;;;;;;19.23;14.05;;;6.30;97.20;;;;;;1705981;29;20840;-74
2022/01/10 07:59:52;;;;;;;20.50;14.10;;;6.30;97.20;;;;;;1707173;29;20550;-74
2022/01/10 08:00:43;;;;;;;16.73;13.45;;;6.30;97.20;;;;;;1707018;29;20763;-73
2022/01/10 08:01:35;;;;;;;17.98;13.75;;;6.30;97.20;;;;;;1706752;29;20203;-73
2022/01/10 08:02:26;;;;;;;18.05;13.30;;;6.30;97.20;;;;;;1706471;29;20202;-73
2022/01/10 08:03:18;;;;;;;18.20;13.67;;;6.30;97.20;;;;;;1702872;29;20302;-74
2022/01/10 08:04:11;;;;;;;17.67;13.48;;;6.30;97.20;;;;;;1702052;29;20946;-73
2022/01/10 08:05:02;;;;;;;14.73;13.10;;;6.30;97.20;;;;;;1700957;29;20296;-74
2022/01/10 08:05:55;;;;;;;16.88;12.98;;;6.30;97.20;;;;;;1699743;29;20195;-74
2022/01/10 08:06:48;;;;;;;19.98;15.38;;;6.30;97.20;;;;;;1699943;29;20261;-73
2022/01/10 08:07:40;;;;;;;15.45;12.55;;;6.30;97.20;;;;;;1702854;29;20576;-74
2022/01/10 08:08:30;;;;;;;19.90;13.52;;;6.30;97.20;;;;;;1703163;29;20260;-74
2022/01/10 08:09:22;;;;;;;15.50;12.67;;;6.40;97.20;;;;;;1705101;29;20198;-73
2022/01/10 08:10:13;;;;;;;17.83;13.93;;;6.30;97.20;;;;;;1706111;29;20242;-74
2022/01/10 08:11:05;;;;;;;17.08;13.60;;;6.40;97.20;;;;;;1703703;29;20203;-74
2022/01/10 08:11:59;;;;;;;18.15;13.50;;;6.30;97.20;;;;;;1703812;29;20214;-73
2022/01/10 08:12:51;;;;;;;17.23;14.25;;;6.30;97.20;;;;;;1697760;29;20231;-73
2022/01/10 08:13:42;;;;;;;18.48;13.73;;;6.30;97.20;;;;;;1705178;29;20214;-74
2022/01/10 08:14:34;;;;;;;27.20;13.40;;;6.30;97.20;;;;;;1704141;29;20646;-73
2022/01/10 08:15:25;;;;;;;18.73;14.40;;;6.30;97.20;;;;;;1706348;29;20494;-74
2022/01/10 08:16:16;;;;;;;16.03;14.13;;;6.30;97.20;;;;;;1700449;29;20226;-74
2022/01/10 08:17:07;;;;;;;17.00;13.45;;;6.30;97.20;;;;;;1699734;29;20195;-74
2022/01/10 08:17:59;;;;;;;15.30;13.70;;;6.30;97.20;;;;;;1700083;29;20666;-74
2022/01/10 08:18:51;;;;;;;18.77;14.40;;;6.40;97.20;;;;;;1705902;29;20237;-74
2022/01/10 08:19:43;;;;;;;19.40;14.07;;;6.40;97.20;;;;;;1707060;29;20277;-73
2022/01/10 08:20:35;;;;;;;16.73;13.38;;;6.40;97.20;;;;;;1706990;29;20227;-73
2022/01/10 08:21:26;;;;;;;16.05;14.07;;;6.40;97.20;;;;;;1707118;29;20679;-74
2022/01/10 08:22:18;;;;;;;17.80;14.13;;;6.40;97.20;;;;;;1705435;29;20612;-74
2022/01/10 08:23:08;;;;;;;18.90;15.70;;;6.40;97.20;;;;;;1700490;29;20203;-74
2022/01/10 08:24:00;;;;;;;19.20;14.60;;;6.40;97.20;;;;;;1702283;29;20205;-73
2022/01/10 08:24:52;;;;;;;18.27;14.73;;;6.40;97.20;;;;;;1707125;29;20668;-74
2022/01/10 08:25:44;;;;;;;17.95;13.98;;;6.40;97.20;;;;;;1707045;29;20297;-74
2022/01/10 08:26:35;;;;;;;17.52;13.45;;;6.40;97.20;;;;;;1707073;29;20206;-74
2022/01/10 08:27:26;;;;;;;20.40;14.20;;;6.40;97.20;;;;;;1707107;29;20212;-74
2022/01/10 08:28:17;;;;;;;16.75;13.55;;;6.40;97.20;;;;;;1706747;29;20580;-74
2022/01/10 08:29:09;;;;;;;17.73;14.00;;;6.40;97.20;;;;;;1707058;29;20203;-74
2022/01/10 08:30:00;;;;;;;19.17;13.93;;;6.40;97.20;;;;;;1707030;29;20203;-76
2022/01/10 08:30:52;;;;;;;19.88;14.13;;;6.40;97.20;;;;;;1707011;29;20314;-74
2022/01/10 08:31:43;;;;;;;18.90;14.50;;;6.40;97.20;;;;;;1707059;29;20203;-74
2022/01/10 08:32:34;;;;;;;15.83;14.03;;;6.40;97.20;;;;;;1707072;29;20208;-74
2022/01/10 08:33:26;;;;;;;15.60;12.10;;;6.40;97.20;;;;;;1707067;29;20488;-74
2022/01/10 08:34:17;;;;;;;17.73;13.60;;;6.40;97.20;;;;;;1703847;29;20263;-74
2022/01/10 08:35:11;;;;;;;15.60;14.00;;;6.40;97.20;;;;;;1700538;29;20203;-74
2022/01/10 08:36:02;;;;;;;17.65;14.32;;;6.40;97.20;;;;;;1700426;29;20451;-73
2022/01/10 08:36:56;;;;;;;16.48;12.82;;;6.40;97.20;;;;;;1700589;29;20203;-74
2022/01/10 08:37:47;;;;;;;17.98;13.57;;;6.40;97.20;;;;;;1700228;29;20217;-74
2022/01/10 08:38:38;;;;;;;14.23;12.70;;;6.40;97.20;;;;;;1700008;29;20207;-74
2022/01/10 08:39:29;;;;;;;18.30;12.50;;;6.50;97.20;;;;;;1700347;29;20241;-74
2022/01/10 08:40:21;;;;;;;15.43;12.55;;;6.50;97.20;;;;;;1700368;29;20211;-74
2022/01/10 08:41:12;;;;;;;13.95;12.40;;;6.50;97.20;;;;;;1700466;29;20267;-74
2022/01/10 08:42:05;;;;;;;17.55;12.90;;;6.50;97.20;;;;;;1700420;29;20203;-73
2022/01/10 08:42:55;;;;;;;14.73;12.27;;;6.50;97.20;;;;;;1701376;29;20235;-73
2022/01/10 08:43:47;;;;;;;15.73;12.87;;;6.50;97.20;;;;;;1701765;29;20210;-73
2022/01/10 08:44:38;;;;;;;16.83;13.05;;;6.50;97.20;;;;;;1702255;29;20521;-74
2022/01/10 08:45:30;;;;;;;15.80;13.03;;;6.50;97.20;;;;;;1702360;29;20209;-74
2022/01/10 08:46:21;;;;;;;14.00;12.50;;;6.50;97.20;;;;;;1702196;29;20214;-74
2022/01/10 08:47:13;;;;;;;15.98;13.77;;;6.50;97.20;;;;;;1702233;29;20199;-74
2022/01/10 08:48:05;;;;;;;15.95;14.25;;;6.50;97.20;;;;;;1701868;29;20203;-73
2022/01/10 08:48:56;;;;;;;18.65;13.95;;;6.40;97.20;;;;;;1702203;29;20210;-74
2022/01/10 08:49:49;;;;;;;18.77;13.00;;;6.50;97.20;;;;;;1702240;29;20199;-73
2022/01/10 08:50:41;;;;;;;15.27;12.65;;;6.40;97.20;;;;;;1702117;29;20231;-73
2022/01/10 08:51:34;;;;;;;21.40;14.20;;;6.40;97.20;;;;;;1702328;29;20269;-73
2022/01/10 08:52:25;;;;;;;15.48;13.88;;;6.50;97.20;;;;;;1701883;29;20207;-74
2022/01/10 08:53:17;;;;;;;15.93;13.03;;;6.50;97.20;;;;;;1701749;29;20203;-74
2022/01/10 08:54:09;;;;;;;15.00;12.93;;;6.50;97.20;;;;;;1701554;29;20223;-73
2022/01/10 08:55:00;;;;;;;15.30;13.07;;;6.50;97.20;;;;;;1700999;29;20198;-74
2022/01/10 08:55:52;;;;;;;16.10;13.02;;;6.50;97.20;;;;;;1701620;29;20271;-74
2022/01/10 08:56:43;;;;;;;17.17;13.27;;;6.50;97.20;;;;;;1701679;29;20207;-73
2022/01/10 08:57:35;;;;;;;17.83;14.60;;;6.50;97.20;;;;;;1701324;29;20282;-74
2022/01/10 08:58:32;;;;;;;18.40;14.05;;;6.50;97.20;;;;;;1701149;29;20234;-74
2022/01/10 08:59:23;;;;;;;18.08;14.40;;;6.50;97.20;;;;;;1706265;29;20737;-74
2022/01/10 09:00:14;;;;;;;16.20;14.02;;;6.50;97.20;;;;;;1708111;29;20206;-74
2022/01/10 09:01:08;;;;;;;15.70;13.50;;;6.50;97.20;;;;;;1708122;29;20253;-73
2022/01/10 09:02:00;;;;;;;18.38;12.90;;;6.50;97.20;;;;;;1702800;29;20237;-74
2022/01/10 09:02:51;;;;;;;14.55;12.93;;;6.50;97.20;;;;;;1701723;29;20206;-73
2022/01/10 09:03:42;;;;;;;14.98;12.20;;;6.50;97.20;;;;;;1701550;29;20262;-74
2022/01/10 09:04:34;;;;;;;16.10;13.33;;;6.50;97.20;;;;;;1701608;29;20203;-74
2022/01/10 09:05:25;;;;;;;16.05;13.93;;;6.50;97.20;;;;;;1701646;29;20674;-75
2022/01/10 09:06:19;;;;;;;15.57;13.07;;;6.50;97.20;;;;;;1701510;29;20235;-74
2022/01/10 09:07:09;;;;;;;17.85;13.10;;;6.60;97.20;;;;;;1701532;29;20698;-74
2022/01/10 09:08:03;;;;;;;17.10;13.90;;;6.60;97.20;;;;;;1701182;29;20612;-74
2022/01/10 09:08:54;;;;;;;18.77;14.90;;;6.60;97.20;;;;;;1701469;29;20227;-74
2022/01/10 09:09:46;;;;;;;16.93;14.53;;;6.60;97.20;;;;;;1701511;29;20289;-73
2022/01/10 09:10:37;;;;;;;20.73;15.25;;;6.60;97.20;;;;;;1701479;29;20484;-74
2022/01/10 09:11:28;;;;;;;17.33;14.60;;;6.50;97.20;;;;;;1701373;29;20201;-74
2022/01/10 09:12:20;;;;;;;16.85;14.82;;;6.60;97.20;;;;;;1701586;29;20219;-73
2022/01/10 09:13:11;;;;;;;21.02;15.77;;;6.60;97.20;;;;;;1701667;29;20806;-74
2022/01/10 09:14:02;;;;;;;18.23;15.10;;;6.60;97.20;;;;;;1701549;29;20207;-74
2022/01/10 09:14:53;;;;;;;17.25;15.43;;;6.60;97.20;;;;;;1701527;29;20207;-74
2022/01/10 09:15:45;;;;;;;15.83;14.23;;;6.60;97.20;;;;;;1701480;29;20199;-73
2022/01/10 09:16:37;;;;;;;18.63;14.45;;;6.60;97.20;;;;;;1701336;29;20218;-74
2022/01/10 09:17:28;;;;;;;18.00;13.65;;;6.60;97.20;;;;;;1701488;29;20738;-74
2022/01/10 09:18:20;;;;;;;14.10;12.70;;;6.60;97.20;;;;;;1701147;29;20619;-74
2022/01/10 09:19:11;;;;;;;15.32;13.23;;;6.70;97.20;;;;;;1701361;29;20203;-73
2022/01/10 09:20:03;;;;;;;14.60;13.13;;;6.70;97.20;;;;;;1701503;29;20203;-73
2022/01/10 09:20:55;;;;;;;17.02;13.85;;;6.70;97.20;;;;;;1701324;29;20254;-74
2022/01/10 09:21:48;;;;;;;19.50;13.18;;;6.70;97.20;;;;;;1701573;29;20302;-74
2022/01/10 09:22:39;;;;;;;21.02;14.57;;;6.70;97.20;;;;;;1701312;29;20203;-73
2022/01/10 09:23:31;;;;;;;14.70;13.10;;;6.70;97.20;;;;;;1701542;29;20203;-74
2022/01/10 09:24:22;;;;;;;17.67;13.77;;;6.60;97.20;;;;;;1703190;29;20558;-73
2022/01/10 09:25:14;;;;;;;15.45;13.85;;;6.60;97.20;;;;;;1701637;29;20238;-74
2022/01/10 09:26:05;;;;;;;20.98;14.02;;;6.60;97.20;;;;;;1702958;29;20198;-74
2022/01/10 09:26:57;;;;;;;18.73;13.37;;;6.60;97.20;;;;;;1701185;29;20207;-74
2022/01/10 09:27:48;;;;;;;15.85;13.82;;;6.60;97.20;;;;;;1701063;29;20655;-73
2022/01/10 09:28:39;;;;;;;16.03;14.30;;;6.60;97.20;;;;;;1701175;29;20622;-74
2022/01/10 09:29:31;;;;;;;15.27;13.68;;;6.60;97.20;;;;;;1701326;29;20446;-74
2022/01/10 09:30:23;;;;;;;15.82;13.52;;;6.60;97.20;;;;;;1701005;29;20207;-73
2022/01/10 09:31:15;;;;;;;14.77;13.27;;;6.60;97.20;;;;;;1701344;29;20255;-73
2022/01/10 09:32:06;;;;;;;15.77;13.55;;;6.60;97.20;;;;;;1701385;29;20230;-74
2022/01/10 09:32:58;;;;;;;16.63;13.38;;;6.50;97.20;;;;;;1701360;29;20642;-74
2022/01/10 09:33:54;;;;;;;16.92;13.25;;;6.50;97.20;;;;;;1701402;29;20211;-73
2022/01/10 09:34:45;;;;;;;16.50;13.45;;;6.50;97.20;;;;;;1706201;29;20191;-74
2022/01/10 09:35:36;;;;;;;15.00;13.43;;;6.50;97.20;;;;;;1707974;29;20217;-73
2022/01/10 09:36:31;;;;;;;18.27;13.25;;;6.50;97.20;;;;;;1707910;29;20202;-74
2022/01/10 09:37:25;;;;;;;14.57;12.02;;;6.50;97.20;;;;;;1708011;29;20202;-74
2022/01/10 09:38:17;;;;;;;13.65;11.70;;;6.50;97.20;;;;;;1707601;29;20575;-73
2022/01/10 09:39:09;;;;;;;17.10;13.18;;;6.50;97.20;;;;;;1707880;29;20241;-74
2022/01/10 09:40:00;;;;;;;15.80;13.20;;;6.50;97.20;;;;;;1707890;29;20686;-74
2022/01/10 09:40:52;;;;;;;15.50;13.05;;;6.50;97.20;;;;;;1706369;29;20280;-74
2022/01/10 09:41:43;;;;;;;14.52;12.40;;;6.50;97.20;;;;;;1701192;29;20203;-74
2022/01/10 09:42:35;;;;;;;16.30;13.73;;;6.60;97.20;;;;;;1701349;29;20200;-73
2022/01/10 09:43:26;;;;;;;14.10;12.30;;;6.60;97.20;;;;;;1701309;29;20210;-74
2022/01/10 09:44:18;;;;;;;15.27;12.43;;;6.60;97.20;;;;;;1701111;29;20207;-74
2022/01/10 09:45:09;;;;;;;16.65;12.82;;;6.60;97.20;;;;;;1701198;29;20760;-74
2022/01/10 09:46:01;;;;;;;20.13;12.52;;;6.60;97.20;;;;;;1701084;29;20203;-74
2022/01/10 09:46:53;;;;;;;16.52;12.20;;;6.60;97.20;;;;;;1701328;29;20555;-73
2022/01/10 09:47:45;;;;;;;14.32;12.82;;;6.60;97.20;;;;;;1701022;29;20340;-74
2022/01/10 09:48:36;;;;;;;13.63;11.15;;;6.60;97.20;;;;;;1701170;29;20211;-73
2022/01/10 09:49:27;;;;;;;16.00;13.17;;;6.60;97.20;;;;;;1701267;29;20207;-74
2022/01/10 09:50:18;;;;;;;13.43;12.13;;;6.60;97.20;;;;;;1701127;29;20302;-74
2022/01/10 09:51:10;;;;;;;16.10;12.77;;;6.60;97.20;;;;;;1701293;29;20234;-74
2022/01/10 09:52:02;;;;;;;13.35;11.95;;;6.60;97.20;;;;;;1701284;29;20463;-73
2022/01/10 09:52:55;;;;;;;17.20;12.98;;;6.60;97.20;;;;;;1701292;29;20222;-73
2022/01/10 09:53:46;;;;;;;16.58;13.18;;;6.70;97.20;;;;;;1700200;29;20218;-73
2022/01/10 09:54:37;;;;;;;15.70;13.10;;;6.70;97.20;;;;;;1700283;29;20242;-73
2022/01/10 09:55:31;;;;;;;15.20;13.30;;;6.70;97.20;;;;;;1701300;29;20202;-74
2022/01/10 09:56:22;;;;;;;19.15;14.45;;;6.70;97.20;;;;;;1701145;29;20260;-74
2022/01/10 09:57:13;;;;;;;16.43;13.63;;;6.70;97.20;;;;;;1700985;29;20203;-74
2022/01/10 09:58:04;;;;;;;14.88;13.27;;;6.70;97.20;;;;;;1700686;29;20210;-74
2022/01/10 09:58:57;;;;;;;18.80;13.13;;;6.70;97.20;;;;;;1700928;29;20304;-74
2022/01/10 09:59:49;;;;;;;17.88;13.52;;;6.80;97.20;;;;;;1701031;29;20207;-73
2022/01/10 10:00:40;;;;;;;14.85;13.32;;;6.80;97.20;;;;;;1700944;29;20714;-74
2022/01/10 10:01:34;;;;;;;17.95;14.00;;;6.80;97.20;;;;;;1701180;29;20199;-73
2022/01/10 10:02:29;;;;;;;15.77;13.45;;;6.80;97.20;;;;;;1701184;29;20239;-73
2022/01/10 10:03:22;;;;;;;18.20;13.77;;;6.80;97.20;;;;;;1700971;29;20266;-74
2022/01/10 10:04:13;;;;;;;16.63;14.38;;;6.80;97.20;;;;;;1701255;29;20215;-73
2022/01/10 10:05:07;;;;;;;19.87;15.37;;;6.80;97.20;;;;;;1701044;29;20210;-74
2022/01/10 10:05:58;;;;;;;20.05;14.45;;;6.80;97.20;;;;;;1701138;29;20613;-74
2022/01/10 10:06:51;;;;;;;16.58;14.55;;;6.80;97.20;;;;;;1701243;29;20214;-74
2022/01/10 10:07:42;;;;;;;18.48;14.73;;;6.90;97.20;;;;;;1700842;29;20235;-73
2022/01/10 10:08:39;;;;;;;18.33;14.85;;;6.90;97.20;;;;;;1701055;29;20240;-73
2022/01/10 10:09:31;;;;;;;19.80;15.88;;;6.90;97.20;;;;;;1701176;29;20588;-73
2022/01/10 10:10:22;;;;;;;22.48;17.02;;;6.90;97.20;;;;;;1700934;29;20226;-74
2022/01/10 10:11:15;;;;;;;22.00;18.08;;;6.90;97.20;;;;;;1705173;29;20202;-74
2022/01/10 10:12:07;;;;;;;18.27;16.27;;;6.90;97.20;;;;;;1707761;29;20297;-73
2022/01/10 10:12:59;;;;;;;19.33;16.05;;;6.90;97.20;;;;;;1707652;29;20202;-73
2022/01/10 10:13:52;;;;;;;21.77;16.17;;;6.90;97.20;;;;;;1702796;29;20230;-73
2022/01/10 10:14:46;;;;;;;21.98;15.93;;;6.90;97.20;;;;;;1700876;29;20207;-74
2022/01/10 10:15:39;;;;;;;20.40;14.60;;;6.90;97.20;;;;;;1700745;29;20211;-73
2022/01/10 10:16:32;;;;;;;18.30;14.57;;;6.90;97.20;;;;;;1701168;29;20559;-74
2022/01/10 10:17:23;;;;;;;17.27;13.60;;;7.00;97.20;;;;;;1701373;29;20191;-74
2022/01/10 10:18:16;;;;;;;21.15;14.88;;;7.00;97.20;;;;;;1701064;29;20222;-73
2022/01/10 10:19:08;;;;;;;17.80;14.80;;;7.00;97.20;;;;;;1700585;29;20207;-74
2022/01/10 10:19:59;;;;;;;19.48;14.35;;;7.10;97.20;;;;;;1702517;29;20230;-74
2022/01/10 10:20:50;;;;;;;16.83;14.70;;;7.10;97.20;;;;;;1704244;29;20215;-73
2022/01/10 10:21:41;;;;;;;19.95;14.10;;;7.10;97.20;;;;;;1703722;29;20206;-74
2022/01/10 10:22:33;;;;;;;21.43;14.30;;;7.10;97.20;;;;;;1706865;29;20204;-74
2022/01/10 10:23:25;;;;;;;17.90;14.15;;;7.10;97.20;;;;;;1702441;29;20202;-74
2022/01/10 10:24:17;;;;;;;20.25;15.45;;;7.10;97.20;;;;;;1702309;29;20214;-74
2022/01/10 10:25:10;;;;;;;18.83;14.60;;;7.10;97.20;;;;;;1701465;29;20579;-73
2022/01/10 10:26:03;;;;;;;19.98;15.75;;;7.10;97.20;;;;;;1702965;29;20246;-74
2022/01/10 10:26:56;;;;;;;20.35;16.10;;;7.10;97.20;;;;;;1700864;29;20336;-74